sensor_id;sensor_type;location;lat;lon;timestamp;P1;durP1;ratioP1;P2;durP2;ratioP2
18738;SDS011;9498;51.862;19.460;2022-09-01T00:00:03;6.57;;;3.87;;
18738;SDS011;9498;51.862;19.460;2022-09-01T00:02:32;7.53;;;3.40;;
18738;SDS011;9498;51.862;19.460;2022-09-01T00:05:01;7.50;;;3.67;;
18738;SDS011;9498;51.862;19.460;2022-09-01T00:07:29;7.33;;;3.20;;
18738;SDS011;9498;51.862;19.460;2022-09-01T00:09:56;6.17;;;3.53;;
18738;SDS011;9498;51.862;19.460;2022-09-01T00:12:24;5.10;;;3.50;;
18738;SDS011;9498;51.862;19.460;2022-09-01T00:14:51;8.03;;;3.47;;
18738;SDS011;9498;51.862;19.460;2022-09-01T00:17:19;5.30;;;3.37;;
18738;SDS011;9498;51.862;19.460;2022-09-01T00:19:47;6.63;;;3.20;;
18738;SDS011;9498;51.862;19.460;2022-09-01T00:22:15;4.93;;;3.13;;
18738;SDS011;9498;51.862;19.460;2022-09-01T00:24:43;10.17;;;3.10;;
18738;SDS011;9498;51.862;19.460;2022-09-01T00:27:10;12.80;;;4.43;;
18738;SDS011;9498;51.862;19.460;2022-09-01T00:29:37;7.60;;;3.17;;
18738;SDS011;9498;51.862;19.460;2022-09-01T00:32:04;8.53;;;3.17;;
18738;SDS011;9498;51.862;19.460;2022-09-01T00:34:32;8.33;;;3.10;;
18738;SDS011;9498;51.862;19.460;2022-09-01T00:36:59;10.13;;;3.17;;
18738;SDS011;9498;51.862;19.460;2022-09-01T00:39:28;3.73;;;2.40;;
18738;SDS011;9498;51.862;19.460;2022-09-01T00:41:55;5.93;;;3.10;;
18738;SDS011;9498;51.862;19.460;2022-09-01T00:44:23;7.20;;;2.83;;
18738;SDS011;9498;51.862;19.460;2022-09-01T00:46:52;6.53;;;3.10;;
18738;SDS011;9498;51.862;19.460;2022-09-01T00:49:21;3.37;;;2.63;;
18738;SDS011;9498;51.862;19.460;2022-09-01T00:51:51;5.47;;;3.27;;
18738;SDS011;9498;51.862;19.460;2022-09-01T00:54:20;5.53;;;2.80;;
18738;SDS011;9498;51.862;19.460;2022-09-01T00:56:50;9.43;;;2.93;;
18738;SDS011;9498;51.862;19.460;2022-09-01T00:59:17;4.37;;;2.70;;
18738;SDS011;9498;51.862;19.460;2022-09-01T01:01:46;5.93;;;2.83;;
18738;SDS011;9498;51.862;19.460;2022-09-01T01:04:14;7.20;;;2.67;;
18738;SDS011;9498;51.862;19.460;2022-09-01T01:06:41;6.70;;;2.70;;
18738;SDS011;9498;51.862;19.460;2022-09-01T01:09:14;4.67;;;3.00;;
18738;SDS011;9498;51.862;19.460;2022-09-01T01:11:41;5.37;;;2.70;;
18738;SDS011;9498;51.862;19.460;2022-09-01T01:14:12;6.23;;;2.70;;
18738;SDS011;9498;51.862;19.460;2022-09-01T01:16:42;6.77;;;2.90;;
18738;SDS011;9498;51.862;19.460;2022-09-01T01:19:10;4.47;;;2.80;;
18738;SDS011;9498;51.862;19.460;2022-09-01T01:22:02;7.50;;;2.50;;
18738;SDS011;9498;51.862;19.460;2022-09-01T01:24:49;3.90;;;2.50;;
18738;SDS011;9498;51.862;19.460;2022-09-01T01:27:16;4.10;;;2.70;;
18738;SDS011;9498;51.862;19.460;2022-09-01T01:29:46;5.17;;;2.60;;
18738;SDS011;9498;51.862;19.460;2022-09-01T01:32:14;4.10;;;2.80;;
18738;SDS011;9498;51.862;19.460;2022-09-01T01:34:42;4.00;;;2.80;;
18738;SDS011;9498;51.862;19.460;2022-09-01T01:37:11;9.73;;;3.03;;
18738;SDS011;9498;51.862;19.460;2022-09-01T01:39:39;5.10;;;2.70;;
18738;SDS011;9498;51.862;19.460;2022-09-01T01:42:10;4.53;;;2.80;;
18738;SDS011;9498;51.862;19.460;2022-09-01T01:44:37;6.50;;;2.90;;
18738;SDS011;9498;51.862;19.460;2022-09-01T01:47:07;5.00;;;2.40;;
18738;SDS011;9498;51.862;19.460;2022-09-01T01:49:37;5.60;;;3.03;;
18738;SDS011;9498;51.862;19.460;2022-09-01T01:52:08;4.77;;;2.90;;
18738;SDS011;9498;51.862;19.460;2022-09-01T01:54:38;3.27;;;2.50;;
18738;SDS011;9498;51.862;19.460;2022-09-01T01:57:06;5.97;;;2.97;;
18738;SDS011;9498;51.862;19.460;2022-09-01T01:59:35;4.47;;;2.57;;
18738;SDS011;9498;51.862;19.460;2022-09-01T02:02:03;5.20;;;2.73;;
18738;SDS011;9498;51.862;19.460;2022-09-01T02:04:34;4.97;;;2.63;;
18738;SDS011;9498;51.862;19.460;2022-09-01T02:07:04;11.57;;;2.80;;
18738;SDS011;9498;51.862;19.460;2022-09-01T02:09:31;5.80;;;3.00;;
18738;SDS011;9498;51.862;19.460;2022-09-01T02:11:59;5.43;;;2.67;;
18738;SDS011;9498;51.862;19.460;2022-09-01T02:14:26;4.30;;;2.90;;
18738;SDS011;9498;51.862;19.460;2022-09-01T02:16:55;5.63;;;2.47;;
18738;SDS011;9498;51.862;19.460;2022-09-01T02:19:22;4.50;;;2.73;;
18738;SDS011;9498;51.862;19.460;2022-09-01T02:21:49;5.40;;;2.80;;
18738;SDS011;9498;51.862;19.460;2022-09-01T02:24:20;8.23;;;2.83;;
18738;SDS011;9498;51.862;19.460;2022-09-01T02:26:48;4.00;;;2.47;;
18738;SDS011;9498;51.862;19.460;2022-09-01T02:29:16;8.80;;;2.87;;
18738;SDS011;9498;51.862;19.460;2022-09-01T02:31:45;5.73;;;2.63;;
18738;SDS011;9498;51.862;19.460;2022-09-01T02:34:14;3.57;;;2.60;;
18738;SDS011;9498;51.862;19.460;2022-09-01T02:36:43;5.00;;;2.63;;
18738;SDS011;9498;51.862;19.460;2022-09-01T02:39:12;6.87;;;2.53;;
18738;SDS011;9498;51.862;19.460;2022-09-01T02:41:40;4.07;;;2.50;;
18738;SDS011;9498;51.862;19.460;2022-09-01T02:44:07;6.50;;;2.53;;
18738;SDS011;9498;51.862;19.460;2022-09-01T02:46:37;4.40;;;2.77;;
18738;SDS011;9498;51.862;19.460;2022-09-01T02:49:06;5.47;;;2.60;;
18738;SDS011;9498;51.862;19.460;2022-09-01T02:51:40;3.73;;;2.50;;
18738;SDS011;9498;51.862;19.460;2022-09-01T02:54:07;4.47;;;2.77;;
18738;SDS011;9498;51.862;19.460;2022-09-01T02:56:35;2.87;;;2.27;;
18738;SDS011;9498;51.862;19.460;2022-09-01T02:59:02;4.50;;;2.80;;
18738;SDS011;9498;51.862;19.460;2022-09-01T03:01:30;4.50;;;2.33;;
18738;SDS011;9498;51.862;19.460;2022-09-01T03:03:59;3.93;;;2.23;;
18738;SDS011;9498;51.862;19.460;2022-09-01T03:06:26;3.93;;;2.27;;
18738;SDS011;9498;51.862;19.460;2022-09-01T03:08:57;4.77;;;2.10;;
18738;SDS011;9498;51.862;19.460;2022-09-01T03:11:25;5.03;;;2.27;;
18738;SDS011;9498;51.862;19.460;2022-09-01T03:13:53;5.67;;;2.33;;
18738;SDS011;9498;51.862;19.460;2022-09-01T03:16:20;6.90;;;2.50;;
18738;SDS011;9498;51.862;19.460;2022-09-01T03:18:48;8.03;;;2.30;;
18738;SDS011;9498;51.862;19.460;2022-09-01T03:21:15;3.93;;;1.90;;
18738;SDS011;9498;51.862;19.460;2022-09-01T03:23:43;2.87;;;2.00;;
18738;SDS011;9498;51.862;19.460;2022-09-01T03:26:13;4.30;;;2.00;;
18738;SDS011;9498;51.862;19.460;2022-09-01T03:28:43;3.57;;;2.10;;
18738;SDS011;9498;51.862;19.460;2022-09-01T03:31:11;4.33;;;2.30;;
18738;SDS011;9498;51.862;19.460;2022-09-01T03:33:38;5.27;;;2.70;;
18738;SDS011;9498;51.862;19.460;2022-09-01T03:36:06;5.67;;;2.70;;
18738;SDS011;9498;51.862;19.460;2022-09-01T03:38:33;4.37;;;2.60;;
18738;SDS011;9498;51.862;19.460;2022-09-01T03:41:01;3.50;;;2.60;;
18738;SDS011;9498;51.862;19.460;2022-09-01T03:43:30;3.80;;;2.60;;
18738;SDS011;9498;51.862;19.460;2022-09-01T03:45:58;2.77;;;2.23;;
18738;SDS011;9498;51.862;19.460;2022-09-01T03:48:26;6.80;;;2.47;;
18738;SDS011;9498;51.862;19.460;2022-09-01T03:50:55;5.67;;;2.80;;
18738;SDS011;9498;51.862;19.460;2022-09-01T03:53:26;6.20;;;2.10;;
18738;SDS011;9498;51.862;19.460;2022-09-01T03:55:54;4.93;;;2.50;;
18738;SDS011;9498;51.862;19.460;2022-09-01T03:58:23;2.63;;;2.20;;
18738;SDS011;9498;51.862;19.460;2022-09-01T04:00:53;3.30;;;2.40;;
18738;SDS011;9498;51.862;19.460;2022-09-01T04:03:21;3.13;;;2.00;;
18738;SDS011;9498;51.862;19.460;2022-09-01T04:05:49;4.70;;;2.43;;
18738;SDS011;9498;51.862;19.460;2022-09-01T04:08:17;3.77;;;2.50;;
18738;SDS011;9498;51.862;19.460;2022-09-01T04:10:49;5.33;;;2.30;;
18738;SDS011;9498;51.862;19.460;2022-09-01T04:13:16;4.50;;;2.70;;
18738;SDS011;9498;51.862;19.460;2022-09-01T04:15:44;7.53;;;2.30;;
18738;SDS011;9498;51.862;19.460;2022-09-01T04:18:13;3.80;;;2.50;;
18738;SDS011;9498;51.862;19.460;2022-09-01T04:20:45;6.50;;;2.57;;
18738;SDS011;9498;51.862;19.460;2022-09-01T04:23:16;2.80;;;2.37;;
18738;SDS011;9498;51.862;19.460;2022-09-01T04:25:50;6.20;;;2.70;;
18738;SDS011;9498;51.862;19.460;2022-09-01T04:28:18;9.77;;;4.03;;
18738;SDS011;9498;51.862;19.460;2022-09-01T04:30:54;6.57;;;2.70;;
18738;SDS011;9498;51.862;19.460;2022-09-01T04:33:24;3.70;;;2.50;;
18738;SDS011;9498;51.862;19.460;2022-09-01T04:35:52;7.00;;;2.90;;
18738;SDS011;9498;51.862;19.460;2022-09-01T04:38:21;4.90;;;2.90;;
18738;SDS011;9498;51.862;19.460;2022-09-01T04:40:49;4.47;;;2.67;;
18738;SDS011;9498;51.862;19.460;2022-09-01T04:43:17;6.23;;;3.00;;
18738;SDS011;9498;51.862;19.460;2022-09-01T04:45:45;5.90;;;3.43;;
18738;SDS011;9498;51.862;19.460;2022-09-01T04:48:16;10.73;;;4.53;;
18738;SDS011;9498;51.862;19.460;2022-09-01T04:50:44;8.20;;;4.73;;
18738;SDS011;9498;51.862;19.460;2022-09-01T04:53:13;7.63;;;4.17;;
18738;SDS011;9498;51.862;19.460;2022-09-01T04:55:42;5.17;;;3.13;;
18738;SDS011;9498;51.862;19.460;2022-09-01T04:58:11;15.57;;;4.47;;
18738;SDS011;9498;51.862;19.460;2022-09-01T05:00:41;8.10;;;4.50;;
18738;SDS011;9498;51.862;19.460;2022-09-01T05:03:12;9.73;;;4.63;;
18738;SDS011;9498;51.862;19.460;2022-09-01T05:05:41;8.13;;;4.10;;
18738;SDS011;9498;51.862;19.460;2022-09-01T05:08:11;16.40;;;5.00;;
18738;SDS011;9498;51.862;19.460;2022-09-01T05:10:40;8.37;;;4.73;;
18738;SDS011;9498;51.862;19.460;2022-09-01T05:13:08;10.33;;;3.97;;
18738;SDS011;9498;51.862;19.460;2022-09-01T05:15:36;9.13;;;3.97;;
18738;SDS011;9498;51.862;19.460;2022-09-01T05:18:04;8.73;;;4.57;;
18738;SDS011;9498;51.862;19.460;2022-09-01T05:20:36;8.43;;;4.30;;
18738;SDS011;9498;51.862;19.460;2022-09-01T05:23:07;9.13;;;5.07;;
18738;SDS011;9498;51.862;19.460;2022-09-01T05:25:38;8.40;;;4.23;;
18738;SDS011;9498;51.862;19.460;2022-09-01T05:28:06;7.50;;;4.10;;
18738;SDS011;9498;51.862;19.460;2022-09-01T05:30:36;6.63;;;3.87;;
18738;SDS011;9498;51.862;19.460;2022-09-01T05:33:04;9.33;;;4.03;;
18738;SDS011;9498;51.862;19.460;2022-09-01T05:35:36;6.63;;;3.50;;
18738;SDS011;9498;51.862;19.460;2022-09-01T05:38:05;4.47;;;2.90;;
18738;SDS011;9498;51.862;19.460;2022-09-01T05:40:39;4.23;;;2.83;;
18738;SDS011;9498;51.862;19.460;2022-09-01T05:43:07;5.90;;;3.00;;
18738;SDS011;9498;51.862;19.460;2022-09-01T05:45:37;8.90;;;2.90;;
18738;SDS011;9498;51.862;19.460;2022-09-01T05:48:04;6.80;;;2.50;;
18738;SDS011;9498;51.862;19.460;2022-09-01T05:50:33;8.40;;;2.67;;
18738;SDS011;9498;51.862;19.460;2022-09-01T05:53:02;4.93;;;2.67;;
18738;SDS011;9498;51.862;19.460;2022-09-01T05:55:35;8.37;;;2.37;;
18738;SDS011;9498;51.862;19.460;2022-09-01T05:58:04;8.70;;;2.60;;
18738;SDS011;9498;51.862;19.460;2022-09-01T06:00:31;5.60;;;2.77;;
18738;SDS011;9498;51.862;19.460;2022-09-01T06:03:02;6.23;;;2.70;;
18738;SDS011;9498;51.862;19.460;2022-09-01T06:05:33;7.33;;;2.33;;
18738;SDS011;9498;51.862;19.460;2022-09-01T06:08:01;3.50;;;1.93;;
18738;SDS011;9498;51.862;19.460;2022-09-01T06:10:29;6.77;;;2.17;;
18738;SDS011;9498;51.862;19.460;2022-09-01T06:12:59;4.90;;;2.00;;
18738;SDS011;9498;51.862;19.460;2022-09-01T06:15:28;3.87;;;2.00;;
18738;SDS011;9498;51.862;19.460;2022-09-01T06:17:56;5.37;;;2.00;;
18738;SDS011;9498;51.862;19.460;2022-09-01T06:20:24;3.10;;;1.77;;
18738;SDS011;9498;51.862;19.460;2022-09-01T06:22:52;3.73;;;1.87;;
18738;SDS011;9498;51.862;19.460;2022-09-01T06:25:19;3.80;;;2.00;;
18738;SDS011;9498;51.862;19.460;2022-09-01T06:27:46;6.40;;;1.80;;
18738;SDS011;9498;51.862;19.460;2022-09-01T06:30:14;2.67;;;1.63;;
18738;SDS011;9498;51.862;19.460;2022-09-01T06:32:46;5.83;;;2.03;;
18738;SDS011;9498;51.862;19.460;2022-09-01T06:35:14;3.90;;;1.73;;
18738;SDS011;9498;51.862;19.460;2022-09-01T06:37:42;3.97;;;1.67;;
18738;SDS011;9498;51.862;19.460;2022-09-01T06:40:10;3.13;;;1.60;;
18738;SDS011;9498;51.862;19.460;2022-09-01T06:42:42;4.50;;;1.97;;
18738;SDS011;9498;51.862;19.460;2022-09-01T06:45:11;6.67;;;2.20;;
18738;SDS011;9498;51.862;19.460;2022-09-01T06:47:39;5.50;;;1.93;;
18738;SDS011;9498;51.862;19.460;2022-09-01T06:50:09;10.40;;;2.40;;
18738;SDS011;9498;51.862;19.460;2022-09-01T06:52:38;6.33;;;2.47;;
18738;SDS011;9498;51.862;19.460;2022-09-01T06:55:07;6.70;;;2.50;;
18738;SDS011;9498;51.862;19.460;2022-09-01T06:57:34;4.17;;;2.10;;
18738;SDS011;9498;51.862;19.460;2022-09-01T07:00:03;5.33;;;2.10;;
18738;SDS011;9498;51.862;19.460;2022-09-01T07:02:41;4.67;;;2.10;;
18738;SDS011;9498;51.862;19.460;2022-09-01T07:05:11;5.45;;;2.50;;
18738;SDS011;9498;51.862;19.460;2022-09-01T07:07:38;7.40;;;2.10;;
18738;SDS011;9498;51.862;19.460;2022-09-01T07:10:06;5.93;;;2.00;;
18738;SDS011;9498;51.862;19.460;2022-09-01T07:12:34;4.17;;;2.13;;
18738;SDS011;9498;51.862;19.460;2022-09-01T07:15:02;3.10;;;1.50;;
18738;SDS011;9498;51.862;19.460;2022-09-01T07:17:30;4.63;;;1.53;;
18738;SDS011;9498;51.862;19.460;2022-09-01T07:19:58;4.17;;;1.40;;
18738;SDS011;9498;51.862;19.460;2022-09-01T07:22:27;4.20;;;1.30;;
18738;SDS011;9498;51.862;19.460;2022-09-01T07:24:54;3.80;;;1.53;;
18738;SDS011;9498;51.862;19.460;2022-09-01T07:27:22;1.53;;;1.20;;
18738;SDS011;9498;51.862;19.460;2022-09-01T07:29:53;3.50;;;1.30;;
18738;SDS011;9498;51.862;19.460;2022-09-01T07:32:21;4.70;;;1.90;;
18738;SDS011;9498;51.862;19.460;2022-09-01T07:34:48;3.57;;;1.20;;
18738;SDS011;9498;51.862;19.460;2022-09-01T07:37:16;1.73;;;1.50;;
18738;SDS011;9498;51.862;19.460;2022-09-01T07:39:48;4.33;;;1.90;;
18738;SDS011;9498;51.862;19.460;2022-09-01T07:42:16;5.20;;;2.40;;
18738;SDS011;9498;51.862;19.460;2022-09-01T07:44:43;5.97;;;2.37;;
18738;SDS011;9498;51.862;19.460;2022-09-01T07:47:11;3.73;;;2.50;;
18738;SDS011;9498;51.862;19.460;2022-09-01T07:49:40;2.70;;;2.20;;
18738;SDS011;9498;51.862;19.460;2022-09-01T07:52:07;3.33;;;1.90;;
18738;SDS011;9498;51.862;19.460;2022-09-01T07:54:34;2.57;;;1.07;;
18738;SDS011;9498;51.862;19.460;2022-09-01T07:57:04;2.43;;;1.50;;
18738;SDS011;9498;51.862;19.460;2022-09-01T07:59:31;1.97;;;1.07;;
18738;SDS011;9498;51.862;19.460;2022-09-01T08:01:59;2.37;;;1.00;;
18738;SDS011;9498;51.862;19.460;2022-09-01T08:04:30;3.60;;;1.43;;
18738;SDS011;9498;51.862;19.460;2022-09-01T08:06:58;0.93;;;0.80;;
18738;SDS011;9498;51.862;19.460;2022-09-01T08:09:25;2.60;;;0.97;;
18738;SDS011;9498;51.862;19.460;2022-09-01T08:11:53;2.97;;;1.03;;
18738;SDS011;9498;51.862;19.460;2022-09-01T08:14:21;2.63;;;1.07;;
18738;SDS011;9498;51.862;19.460;2022-09-01T08:16:49;2.47;;;1.00;;
18738;SDS011;9498;51.862;19.460;2022-09-01T08:19:16;1.63;;;0.90;;
18738;SDS011;9498;51.862;19.460;2022-09-01T08:21:43;1.30;;;0.70;;
18738;SDS011;9498;51.862;19.460;2022-09-01T08:24:10;2.37;;;0.90;;
18738;SDS011;9498;51.862;19.460;2022-09-01T08:26:38;0.80;;;0.67;;
18738;SDS011;9498;51.862;19.460;2022-09-01T08:29:05;4.47;;;0.80;;
18738;SDS011;9498;51.862;19.460;2022-09-01T08:31:35;2.43;;;1.10;;
18738;SDS011;9498;51.862;19.460;2022-09-01T08:34:02;2.73;;;0.80;;
18738;SDS011;9498;51.862;19.460;2022-09-01T08:36:29;2.93;;;0.90;;
18738;SDS011;9498;51.862;19.460;2022-09-01T08:38:57;0.77;;;0.67;;
18738;SDS011;9498;51.862;19.460;2022-09-01T08:41:28;5.33;;;1.33;;
18738;SDS011;9498;51.862;19.460;2022-09-01T08:43:59;4.50;;;0.90;;
18738;SDS011;9498;51.862;19.460;2022-09-01T08:46:29;1.80;;;0.87;;
18738;SDS011;9498;51.862;19.460;2022-09-01T08:49:03;2.07;;;0.93;;
18738;SDS011;9498;51.862;19.460;2022-09-01T08:51:34;2.07;;;1.00;;
18738;SDS011;9498;51.862;19.460;2022-09-01T08:54:05;1.93;;;0.70;;
18738;SDS011;9498;51.862;19.460;2022-09-01T08:56:33;1.70;;;1.00;;
18738;SDS011;9498;51.862;19.460;2022-09-01T08:59:02;3.00;;;1.07;;
18738;SDS011;9498;51.862;19.460;2022-09-01T09:01:30;1.23;;;0.90;;
18738;SDS011;9498;51.862;19.460;2022-09-01T09:04:06;1.40;;;0.80;;
18738;SDS011;9498;51.862;19.460;2022-09-01T09:06:35;0.97;;;0.70;;
18738;SDS011;9498;51.862;19.460;2022-09-01T09:09:04;2.07;;;0.60;;
18738;SDS011;9498;51.862;19.460;2022-09-01T09:11:55;1.10;;;0.80;;
18738;SDS011;9498;51.862;19.460;2022-09-01T09:14:31;0.93;;;0.77;;
18738;SDS011;9498;51.862;19.460;2022-09-01T09:16:59;1.27;;;0.70;;
18738;SDS011;9498;51.862;19.460;2022-09-01T09:19:30;2.27;;;0.60;;
18738;SDS011;9498;51.862;19.460;2022-09-01T09:21:59;1.10;;;0.60;;
18738;SDS011;9498;51.862;19.460;2022-09-01T09:24:28;1.20;;;0.60;;
18738;SDS011;9498;51.862;19.460;2022-09-01T09:27:14;0.60;;;0.53;;
18738;SDS011;9498;51.862;19.460;2022-09-01T09:29:42;1.13;;;0.77;;
18738;SDS011;9498;51.862;19.460;2022-09-01T09:32:09;1.77;;;0.80;;
18738;SDS011;9498;51.862;19.460;2022-09-01T09:34:39;3.63;;;0.90;;
18738;SDS011;9498;51.862;19.460;2022-09-01T09:37:19;2.47;;;0.80;;
18738;SDS011;9498;51.862;19.460;2022-09-01T09:40:00;1.70;;;0.80;;
18738;SDS011;9498;51.862;19.460;2022-09-01T09:42:27;2.27;;;0.80;;
18738;SDS011;9498;51.862;19.460;2022-09-01T09:44:55;2.60;;;0.70;;
18738;SDS011;9498;51.862;19.460;2022-09-01T09:47:33;1.10;;;0.80;;
18738;SDS011;9498;51.862;19.460;2022-09-01T09:50:11;3.37;;;0.90;;
18738;SDS011;9498;51.862;19.460;2022-09-01T09:52:39;2.30;;;0.73;;
18738;SDS011;9498;51.862;19.460;2022-09-01T09:55:17;3.53;;;0.80;;
18738;SDS011;9498;51.862;19.460;2022-09-01T09:57:46;4.20;;;0.90;;
18738;SDS011;9498;51.862;19.460;2022-09-01T10:00:17;1.40;;;0.80;;
18738;SDS011;9498;51.862;19.460;2022-09-01T10:02:46;1.67;;;0.60;;
18738;SDS011;9498;51.862;19.460;2022-09-01T10:05:23;2.97;;;0.80;;
18738;SDS011;9498;51.862;19.460;2022-09-01T10:07:50;1.43;;;0.80;;
18738;SDS011;9498;51.862;19.460;2022-09-01T10:10:26;1.63;;;0.60;;
18738;SDS011;9498;51.862;19.460;2022-09-01T10:12:54;1.30;;;0.70;;
18738;SDS011;9498;51.862;19.460;2022-09-01T10:15:23;2.07;;;0.77;;
18738;SDS011;9498;51.862;19.460;2022-09-01T10:17:51;1.33;;;0.60;;
18738;SDS011;9498;51.862;19.460;2022-09-01T10:20:20;0.50;;;0.50;;
18738;SDS011;9498;51.862;19.460;2022-09-01T10:22:49;0.73;;;0.57;;
18738;SDS011;9498;51.862;19.460;2022-09-01T10:25:18;0.73;;;0.50;;
18738;SDS011;9498;51.862;19.460;2022-09-01T10:27:47;3.20;;;0.70;;
18738;SDS011;9498;51.862;19.460;2022-09-01T10:30:16;2.10;;;0.90;;
18738;SDS011;9498;51.862;19.460;2022-09-01T10:32:44;1.10;;;0.70;;
18738;SDS011;9498;51.862;19.460;2022-09-01T10:35:13;2.10;;;0.70;;
18738;SDS011;9498;51.862;19.460;2022-09-01T10:37:44;1.02;;;0.70;;
18738;SDS011;9498;51.862;19.460;2022-09-01T10:40:17;1.07;;;0.63;;
18738;SDS011;9498;51.862;19.460;2022-09-01T10:42:45;1.03;;;0.60;;
18738;SDS011;9498;51.862;19.460;2022-09-01T10:45:28;0.90;;;0.60;;
18738;SDS011;9498;51.862;19.460;2022-09-01T10:47:56;0.80;;;0.50;;
18738;SDS011;9498;51.862;19.460;2022-09-01T10:50:44;1.70;;;0.70;;
18738;SDS011;9498;51.862;19.460;2022-09-01T10:53:19;2.73;;;0.90;;
18738;SDS011;9498;51.862;19.460;2022-09-01T10:56:05;3.27;;;0.80;;
18738;SDS011;9498;51.862;19.460;2022-09-01T11:07:28;1.00;;;0.70;;
18738;SDS011;9498;51.862;19.460;2022-09-01T11:10:12;1.23;;;0.60;;
18738;SDS011;9498;51.862;19.460;2022-09-01T11:12:45;2.73;;;0.70;;
18738;SDS011;9498;51.862;19.460;2022-09-01T11:15:35;3.03;;;0.80;;
18738;SDS011;9498;51.862;19.460;2022-09-01T11:18:07;1.40;;;0.80;;
18738;SDS011;9498;51.862;19.460;2022-09-01T11:20:37;2.10;;;0.70;;
18738;SDS011;9498;51.862;19.460;2022-09-01T11:23:06;3.00;;;0.90;;
18738;SDS011;9498;51.862;19.460;2022-09-01T11:25:36;1.80;;;0.70;;
18738;SDS011;9498;51.862;19.460;2022-09-01T11:28:09;1.17;;;0.77;;
18738;SDS011;9498;51.862;19.460;2022-09-01T11:30:41;1.92;;;0.77;;
18738;SDS011;9498;51.862;19.460;2022-09-01T11:33:26;0.67;;;0.60;;
18738;SDS011;9498;51.862;19.460;2022-09-01T11:35:58;1.30;;;0.80;;
18738;SDS011;9498;51.862;19.460;2022-09-01T11:38:26;0.90;;;0.80;;
18738;SDS011;9498;51.862;19.460;2022-09-01T11:40:55;1.73;;;1.03;;
18738;SDS011;9498;51.862;19.460;2022-09-01T11:43:24;1.13;;;0.60;;
18738;SDS011;9498;51.862;19.460;2022-09-01T11:45:54;1.40;;;0.80;;
18738;SDS011;9498;51.862;19.460;2022-09-01T11:48:25;0.70;;;0.70;;
18738;SDS011;9498;51.862;19.460;2022-09-01T11:50:55;1.53;;;0.80;;
18738;SDS011;9498;51.862;19.460;2022-09-01T11:53:23;4.87;;;0.80;;
18738;SDS011;9498;51.862;19.460;2022-09-01T11:55:52;1.03;;;0.70;;
18738;SDS011;9498;51.862;19.460;2022-09-01T11:58:32;1.77;;;1.23;;
18738;SDS011;9498;51.862;19.460;2022-09-01T12:01:13;1.00;;;0.70;;
18738;SDS011;9498;51.862;19.460;2022-09-01T12:03:41;2.60;;;0.80;;
18738;SDS011;9498;51.862;19.460;2022-09-01T12:06:09;3.90;;;0.80;;
18738;SDS011;9498;51.862;19.460;2022-09-01T12:08:38;4.00;;;0.90;;
18738;SDS011;9498;51.862;19.460;2022-09-01T12:11:07;0.60;;;0.60;;
18738;SDS011;9498;51.862;19.460;2022-09-01T12:13:37;0.80;;;0.77;;
18738;SDS011;9498;51.862;19.460;2022-09-01T12:16:05;1.20;;;0.90;;
18738;SDS011;9498;51.862;19.460;2022-09-01T12:18:33;3.47;;;0.87;;
18738;SDS011;9498;51.862;19.460;2022-09-01T12:21:04;2.27;;;1.10;;
18738;SDS011;9498;51.862;19.460;2022-09-01T12:23:33;1.70;;;1.00;;
18738;SDS011;9498;51.862;19.460;2022-09-01T12:26:01;1.90;;;0.97;;
18738;SDS011;9498;51.862;19.460;2022-09-01T12:28:28;1.53;;;0.70;;
18738;SDS011;9498;51.862;19.460;2022-09-01T12:30:58;2.90;;;1.07;;
18738;SDS011;9498;51.862;19.460;2022-09-01T12:33:26;0.97;;;0.80;;
18738;SDS011;9498;51.862;19.460;2022-09-01T12:38:36;2.20;;;0.80;;
18738;SDS011;9498;51.862;19.460;2022-09-01T12:41:15;2.77;;;0.80;;
18738;SDS011;9498;51.862;19.460;2022-09-01T12:43:48;1.83;;;0.90;;
18738;SDS011;9498;51.862;19.460;2022-09-01T12:51:41;2.60;;;0.93;;
18738;SDS011;9498;51.862;19.460;2022-09-01T12:54:12;1.20;;;0.80;;
18738;SDS011;9498;51.862;19.460;2022-09-01T12:56:39;2.60;;;1.17;;
18738;SDS011;9498;51.862;19.460;2022-09-01T12:59:07;4.13;;;0.90;;
18738;SDS011;9498;51.862;19.460;2022-09-01T13:01:36;4.23;;;0.70;;
18738;SDS011;9498;51.862;19.460;2022-09-01T13:04:05;1.50;;;0.80;;
18738;SDS011;9498;51.862;19.460;2022-09-01T13:06:33;3.70;;;1.07;;
18738;SDS011;9498;51.862;19.460;2022-09-01T13:09:01;1.30;;;0.70;;
18738;SDS011;9498;51.862;19.460;2022-09-01T13:11:29;2.37;;;0.87;;
18738;SDS011;9498;51.862;19.460;2022-09-01T13:13:56;0.70;;;0.63;;
18738;SDS011;9498;51.862;19.460;2022-09-01T13:16:23;2.47;;;0.90;;
18738;SDS011;9498;51.862;19.460;2022-09-01T13:18:50;0.70;;;0.60;;
18738;SDS011;9498;51.862;19.460;2022-09-01T13:21:18;1.40;;;0.80;;
18738;SDS011;9498;51.862;19.460;2022-09-01T13:23:45;3.63;;;0.90;;
18738;SDS011;9498;51.862;19.460;2022-09-01T13:26:15;0.80;;;0.80;;
18738;SDS011;9498;51.862;19.460;2022-09-01T13:28:43;1.37;;;0.80;;
18738;SDS011;9498;51.862;19.460;2022-09-01T13:31:10;2.17;;;0.80;;
18738;SDS011;9498;51.862;19.460;2022-09-01T13:33:38;1.40;;;0.80;;
18738;SDS011;9498;51.862;19.460;2022-09-01T13:36:05;1.70;;;0.90;;
18738;SDS011;9498;51.862;19.460;2022-09-01T13:38:33;1.37;;;0.97;;
18738;SDS011;9498;51.862;19.460;2022-09-01T13:41:00;4.83;;;0.90;;
18738;SDS011;9498;51.862;19.460;2022-09-01T13:43:29;1.97;;;0.90;;
18738;SDS011;9498;51.862;19.460;2022-09-01T13:45:57;2.43;;;0.70;;
18738;SDS011;9498;51.862;19.460;2022-09-01T13:48:24;2.67;;;1.00;;
18738;SDS011;9498;51.862;19.460;2022-09-01T13:50:52;1.73;;;0.90;;
18738;SDS011;9498;51.862;19.460;2022-09-01T13:53:20;5.53;;;0.90;;
18738;SDS011;9498;51.862;19.460;2022-09-01T13:55:47;1.07;;;0.80;;
18738;SDS011;9498;51.862;19.460;2022-09-01T13:58:14;1.43;;;0.80;;
18738;SDS011;9498;51.862;19.460;2022-09-01T14:00:44;3.40;;;0.80;;
18738;SDS011;9498;51.862;19.460;2022-09-01T14:03:13;2.57;;;0.93;;
18738;SDS011;9498;51.862;19.460;2022-09-01T14:05:43;2.27;;;0.73;;
18738;SDS011;9498;51.862;19.460;2022-09-01T14:08:11;3.57;;;0.90;;
18738;SDS011;9498;51.862;19.460;2022-09-01T14:10:39;1.90;;;0.97;;
18738;SDS011;9498;51.862;19.460;2022-09-01T14:13:07;5.90;;;0.80;;
18738;SDS011;9498;51.862;19.460;2022-09-01T14:15:34;1.67;;;0.90;;
18738;SDS011;9498;51.862;19.460;2022-09-01T14:18:03;1.47;;;0.80;;
18738;SDS011;9498;51.862;19.460;2022-09-01T14:20:32;4.50;;;0.90;;
18738;SDS011;9498;51.862;19.460;2022-09-01T14:23:02;1.73;;;1.23;;
18738;SDS011;9498;51.862;19.460;2022-09-01T14:25:30;0.83;;;0.70;;
18738;SDS011;9498;51.862;19.460;2022-09-01T14:27:58;1.53;;;0.73;;
18738;SDS011;9498;51.862;19.460;2022-09-01T14:30:27;1.00;;;0.73;;
18738;SDS011;9498;51.862;19.460;2022-09-01T14:32:54;3.33;;;0.80;;
18738;SDS011;9498;51.862;19.460;2022-09-01T14:35:24;1.37;;;0.80;;
18738;SDS011;9498;51.862;19.460;2022-09-01T14:37:52;4.20;;;0.80;;
18738;SDS011;9498;51.862;19.460;2022-09-01T14:40:19;1.87;;;1.00;;
18738;SDS011;9498;51.862;19.460;2022-09-01T14:42:48;0.90;;;0.80;;
18738;SDS011;9498;51.862;19.460;2022-09-01T14:45:17;2.10;;;0.90;;
18738;SDS011;9498;51.862;19.460;2022-09-01T14:47:44;1.43;;;0.80;;
18738;SDS011;9498;51.862;19.460;2022-09-01T14:50:12;1.40;;;0.90;;
18738;SDS011;9498;51.862;19.460;2022-09-01T14:52:41;3.23;;;0.93;;
18738;SDS011;9498;51.862;19.460;2022-09-01T14:55:09;1.80;;;0.83;;
18738;SDS011;9498;51.862;19.460;2022-09-01T14:57:36;3.20;;;0.80;;
18738;SDS011;9498;51.862;19.460;2022-09-01T15:00:05;1.60;;;0.80;;
18738;SDS011;9498;51.862;19.460;2022-09-01T15:02:34;2.27;;;0.83;;
18738;SDS011;9498;51.862;19.460;2022-09-01T15:05:01;7.03;;;2.30;;
18738;SDS011;9498;51.862;19.460;2022-09-01T15:07:28;4.17;;;1.00;;
18738;SDS011;9498;51.862;19.460;2022-09-01T15:09:57;3.40;;;1.10;;
18738;SDS011;9498;51.862;19.460;2022-09-01T15:12:24;4.00;;;1.10;;
18738;SDS011;9498;51.862;19.460;2022-09-01T15:14:55;2.30;;;1.37;;
18738;SDS011;9498;51.862;19.460;2022-09-01T15:17:23;5.13;;;0.83;;